createdAt,value
2022-12-13T00:01:47.739Z,298.10
2022-12-13T00:04:18.051Z,358.17
2022-12-13T00:06:46.636Z,358.80
2022-12-13T00:09:16.172Z,358.77
2022-12-13T00:11:44.894Z,363.67
2022-12-13T00:14:14.911Z,351.87
2022-12-13T00:16:46.945Z,368.23
2022-12-13T00:19:17.680Z,390.97
2022-12-13T00:21:46.484Z,399.97
2022-12-13T00:24:14.891Z,402.97
2022-12-13T00:26:43.244Z,397.03
2022-12-13T00:29:13.085Z,420.77
2022-12-13T00:34:31.923Z,407.77
2022-12-13T00:37:04.736Z,387.53
2022-12-13T00:39:33.242Z,374.50
2022-12-13T00:42:01.623Z,408.30
2022-12-13T00:44:31.187Z,412.83
2022-12-13T00:46:59.808Z,427.93
2022-12-13T00:49:28.261Z,412.63
2022-12-13T00:51:58.062Z,418.47
2022-12-13T00:54:26.494Z,425.40
2022-12-13T00:56:55.257Z,427.53
2022-12-13T00:59:24.642Z,420.37
2022-12-13T01:01:53.462Z,418.93
2022-12-13T01:04:21.953Z,438.37
2022-12-13T01:06:51.473Z,424.37
2022-12-13T01:09:22.812Z,402.07
2022-12-13T01:11:52.085Z,429.23
2022-12-13T01:14:21.046Z,395.27
2022-12-13T01:16:49.569Z,431.90
2022-12-13T01:19:18.150Z,404.20
2022-12-13T01:21:46.573Z,392.17
2022-12-13T01:24:15.171Z,399.27
2022-12-13T01:26:44.921Z,408.93
2022-12-13T01:29:13.341Z,368.70
2022-12-13T01:31:42.146Z,401.13
2022-12-13T01:34:12.977Z,401.23
2022-12-13T01:36:42.577Z,424.17
2022-12-13T01:39:15.276Z,419.63
2022-12-13T01:41:46.166Z,448.50
2022-12-13T01:44:51.964Z,421.97
2022-12-13T01:47:21.966Z,433.83
2022-12-13T01:49:50.706Z,415.67
2022-12-13T01:52:19.722Z,421.53
2022-12-13T01:54:50.084Z,412.77
2022-12-13T01:57:21.981Z,442.20
2022-12-13T01:59:51.019Z,409.70
2022-12-13T02:02:19.677Z,384.67
2022-12-13T02:04:54.375Z,422.87
2022-12-13T02:07:28.015Z,415.63
2022-12-13T02:09:58.894Z,429.10
2022-12-13T02:12:30.838Z,424.13
2022-12-13T02:15:00.867Z,413.57
2022-12-13T02:17:43.914Z,418.73
2022-12-13T02:20:49.990Z,457.25
2022-12-13T02:23:38.879Z,397.60
2022-12-13T02:26:36.875Z,413.23
2022-12-13T02:29:30.918Z,430.20
2022-12-13T02:32:03.571Z,452.77
2022-12-13T02:34:37.891Z,425.17
2022-12-13T02:37:17.675Z,457.83
2022-12-13T02:39:52.033Z,399.20
2022-12-13T02:42:23.039Z,393.63
2022-12-13T02:44:54.854Z,382.77
2022-12-13T02:47:26.669Z,392.93
2022-12-13T02:49:59.300Z,382.27
2022-12-13T02:52:30.285Z,391.30
2022-12-13T02:54:59.009Z,422.27
2022-12-13T02:57:32.383Z,426.87
2022-12-13T03:00:03.441Z,449.63
2022-12-13T03:02:41.401Z,414.77
2022-12-13T03:05:36.069Z,437.40
2022-12-13T03:08:13.929Z,432.10
2022-12-13T03:10:56.605Z,426.47
2022-12-13T03:13:37.813Z,424.93
2022-12-13T03:16:22.881Z,437.27
2022-12-13T03:18:53.978Z,422.60
2022-12-13T03:21:22.547Z,408.20
2022-12-13T03:23:51.202Z,427.03
2022-12-13T03:26:23.335Z,411.73
2022-12-13T03:28:51.942Z,433.47
2022-12-13T03:31:21.312Z,410.73
2022-12-13T03:33:49.804Z,391.20
2022-12-13T03:36:20.128Z,363.07
2022-12-13T03:38:52.308Z,359.77
2022-12-13T03:41:23.092Z,382.00
2022-12-13T03:43:51.561Z,373.80
2022-12-13T03:46:19.997Z,354.97
2022-12-13T03:48:48.441Z,346.47
2022-12-13T03:51:16.868Z,380.43
2022-12-13T03:53:46.771Z,364.33
2022-12-13T03:56:15.226Z,363.60
2022-12-13T03:58:43.691Z,361.93
2022-12-13T04:01:13.731Z,401.83
2022-12-13T04:03:44.933Z,388.40
2022-12-13T04:06:21.589Z,382.63
2022-12-13T04:08:53.156Z,384.87
2022-12-13T04:11:42.950Z,394.00
2022-12-13T04:14:12.158Z,395.70
2022-12-13T04:16:40.609Z,394.53
2022-12-13T04:19:08.944Z,373.03
2022-12-13T04:21:37.311Z,375.07
2022-12-13T04:24:07.471Z,355.40
2022-12-13T04:26:35.788Z,361.43
2022-12-13T04:29:04.157Z,366.57
2022-12-13T04:31:32.660Z,355.77
2022-12-13T04:34:01.027Z,374.80
2022-12-13T04:36:31.910Z,372.03
2022-12-13T04:39:01.488Z,382.37
2022-12-13T04:41:35.649Z,367.53
2022-12-13T04:44:05.173Z,354.60
2022-12-13T04:46:33.642Z,366.60
2022-12-13T04:49:02.520Z,385.17
2022-12-13T04:51:31.303Z,408.67
2022-12-13T04:54:12.990Z,386.43
2022-12-13T04:56:49.348Z,421.87
2022-12-13T04:59:18.036Z,386.43
2022-12-13T05:01:46.467Z,373.40
2022-12-13T05:04:14.822Z,389.47
2022-12-13T05:06:43.255Z,374.07
2022-12-13T05:09:11.782Z,346.23
2022-12-13T05:11:45.431Z,370.83
2022-12-13T05:14:23.313Z,366.27
2022-12-13T05:16:53.213Z,372.20
2022-12-13T05:19:21.666Z,401.53
2022-12-13T05:22:01.866Z,369.17
2022-12-13T05:24:31.145Z,352.20
2022-12-13T05:26:59.765Z,397.47
2022-12-13T05:29:29.883Z,387.10
2022-12-13T05:31:58.968Z,385.37
2022-12-13T05:34:27.840Z,367.37
2022-12-13T05:36:58.162Z,319.97
2022-12-13T05:39:28.828Z,362.13
2022-12-13T05:42:01.296Z,437.93
2022-12-13T05:44:32.366Z,377.70
2022-12-13T05:47:01.976Z,356.07
2022-12-13T05:49:31.399Z,373.13
2022-12-13T05:51:59.905Z,376.33
2022-12-13T05:54:28.503Z,364.07
2022-12-13T05:56:56.966Z,353.97
2022-12-13T05:59:25.372Z,366.93
2022-12-13T06:01:55.180Z,392.77
2022-12-13T06:04:23.792Z,389.80
2022-12-13T06:06:52.554Z,376.10
2022-12-13T06:09:21.433Z,398.07
2022-12-13T06:11:50.091Z,359.17
2022-12-13T06:14:22.427Z,397.47
2022-12-13T06:16:52.486Z,389.97
2022-12-13T06:19:23.060Z,408.43
2022-12-13T06:21:51.547Z,386.00
2022-12-13T06:24:21.010Z,368.53
2022-12-13T06:26:50.118Z,393.23
2022-12-13T06:29:23.496Z,373.07
2022-12-13T06:32:02.188Z,447.33
2022-12-13T06:34:34.054Z,345.27
2022-12-13T06:37:02.877Z,438.70
2022-12-13T06:39:38.923Z,385.50
2022-12-13T06:42:08.597Z,424.07
2022-12-13T06:44:37.115Z,378.53
2022-12-13T06:47:11.676Z,412.60
2022-12-13T06:49:44.565Z,381.13
2022-12-13T06:52:14.589Z,380.33
2022-12-13T06:54:43.287Z,351.03
2022-12-13T06:57:12.127Z,359.07
2022-12-13T06:59:41.340Z,331.50
2022-12-13T07:02:25.114Z,391.70
2022-12-13T07:04:56.343Z,374.38
2022-12-13T07:07:25.820Z,383.13
2022-12-13T07:09:54.689Z,400.50
2022-12-13T07:12:23.151Z,363.83
2022-12-13T07:14:51.666Z,372.80
2022-12-13T07:17:33.037Z,349.40
2022-12-13T07:20:07.878Z,320.13
2022-12-13T07:22:42.943Z,339.27
2022-12-13T07:25:27.470Z,346.20
2022-12-13T07:28:01.627Z,344.97
2022-12-13T07:30:31.739Z,345.33
2022-12-13T07:33:00.285Z,344.30
2022-12-13T07:35:30.668Z,334.27
2022-12-13T07:37:59.151Z,348.50
2022-12-13T07:40:28.142Z,295.90
2022-12-13T07:42:58.751Z,334.17
2022-12-13T07:45:27.483Z,320.80
2022-12-13T07:47:55.939Z,309.33
2022-12-13T07:50:25.763Z,332.43
2022-12-13T07:52:55.726Z,335.20
2022-12-13T07:55:33.445Z,298.53
2022-12-13T07:58:07.058Z,403.53
2022-12-13T08:00:35.855Z,302.40
2022-12-13T08:03:04.387Z,270.40
2022-12-13T08:05:38.157Z,351.23
2022-12-13T08:08:11.738Z,278.47
2022-12-13T08:10:40.542Z,303.87
2022-12-13T08:13:08.974Z,275.47
2022-12-13T08:15:37.422Z,276.60
2022-12-13T08:18:06.466Z,289.70
2022-12-13T08:20:34.907Z,259.93
2022-12-13T08:23:03.294Z,259.03
2022-12-13T08:25:33.108Z,263.00
2022-12-13T08:28:02.644Z,279.47
2022-12-13T08:30:32.836Z,276.53
2022-12-13T08:33:05.181Z,254.43
2022-12-13T08:35:35.352Z,255.97
2022-12-13T08:38:04.462Z,228.93
2022-12-13T08:40:34.891Z,254.33
2022-12-13T08:43:03.700Z,201.83
2022-12-13T08:45:34.174Z,215.47
2022-12-13T08:48:03.218Z,191.70
2022-12-13T08:50:32.189Z,200.40
2022-12-13T08:53:00.617Z,174.80
2022-12-13T08:55:31.717Z,192.03
2022-12-13T08:58:08.323Z,202.97
2022-12-13T09:00:37.416Z,200.07
2022-12-13T09:03:06.358Z,190.77
2022-12-13T09:05:38.978Z,205.23
2022-12-13T09:08:24.410Z,188.17
2022-12-13T09:11:00.443Z,162.27
2022-12-13T09:13:31.916Z,214.50
2022-12-13T09:16:04.767Z,171.77
2022-12-13T09:18:36.186Z,212.50
2022-12-13T09:21:11.482Z,157.30
2022-12-13T09:23:46.130Z,184.13
2022-12-13T09:26:16.761Z,209.20
2022-12-13T09:28:46.608Z,182.93
2022-12-13T09:31:16.418Z,161.23
2022-12-13T09:33:45.239Z,169.73
2022-12-13T09:36:15.443Z,144.10
2022-12-13T09:38:44.130Z,144.53
2022-12-13T09:41:20.361Z,147.53
2022-12-13T09:44:01.131Z,172.10
2022-12-13T09:46:34.966Z,186.10
2022-12-13T09:49:15.958Z,164.67
2022-12-13T09:52:10.258Z,159.30
2022-12-13T09:54:48.152Z,200.90
2022-12-13T09:57:32.062Z,162.10
2022-12-13T10:00:06.371Z,136.20
2022-12-13T10:02:35.638Z,165.30
2022-12-13T10:05:22.594Z,136.43
2022-12-13T10:07:54.090Z,182.47
2022-12-13T10:10:22.551Z,160.90
2022-12-13T10:12:55.974Z,162.60
2022-12-13T10:15:26.275Z,139.23
2022-12-13T10:17:55.265Z,134.67
2022-12-13T10:20:26.105Z,138.17
2022-12-13T10:23:33.200Z,151.23
2022-12-13T10:25:51.422Z,176.33
2022-12-13T10:28:25.621Z,167.90
2022-12-13T10:30:55.745Z,109.53
2022-12-13T10:33:27.336Z,120.03
2022-12-13T10:36:10.406Z,190.33
2022-12-13T10:38:40.889Z,160.47
2022-12-13T10:41:30.029Z,236.03
2022-12-13T10:44:21.387Z,248.77
2022-12-13T10:46:53.748Z,122.47
2022-12-13T10:49:24.195Z,108.37
2022-12-13T10:51:54.278Z,141.48
2022-12-13T10:54:29.143Z,109.13
2022-12-13T10:57:07.935Z,161.57
2022-12-13T10:59:37.762Z,174.13
2022-12-13T11:02:31.565Z,156.15
2022-12-13T11:05:00.832Z,167.35
2022-12-13T11:07:31.244Z,147.15
2022-12-13T11:10:05.091Z,133.23
2022-12-13T11:12:34.854Z,141.55
2022-12-13T11:15:06.191Z,131.40
2022-12-13T11:17:40.707Z,175.90
2022-12-13T11:20:18.795Z,179.70
2022-12-13T11:22:47.380Z,123.25
2022-12-13T11:25:22.954Z,160.13
2022-12-13T11:28:03.355Z,129.57
2022-12-13T11:30:38.047Z,159.10
2022-12-13T11:35:49.981Z,192.95
2022-12-13T11:38:28.203Z,200.48
2022-12-13T11:41:00.180Z,175.13
2022-12-13T11:43:33.656Z,156.73
2022-12-13T11:46:05.203Z,192.20
2022-12-13T11:48:43.203Z,178.60
2022-12-13T11:51:14.205Z,148.73
2022-12-13T11:53:50.972Z,166.63
2022-12-13T11:56:25.521Z,178.23
2022-12-13T11:59:04.983Z,264.63
2022-12-13T12:01:44.445Z,169.27
2022-12-13T12:04:24.222Z,203.55
2022-12-13T12:06:55.812Z,185.73
2022-12-13T12:09:27.018Z,194.45
2022-12-13T12:12:00.177Z,207.00
2022-12-13T12:14:39.136Z,192.30
2022-12-13T12:17:07.630Z,228.82
2022-12-13T12:19:39.726Z,228.38
2022-12-13T12:22:17.088Z,219.95
2022-12-13T12:24:56.350Z,208.00
2022-12-13T12:27:33.062Z,211.55
2022-12-13T12:30:22.852Z,215.13
2022-12-13T12:33:00.334Z,222.13
2022-12-13T12:35:59.878Z,222.77
2022-12-13T12:38:53.774Z,210.60
2022-12-13T12:41:32.609Z,229.98
2022-12-13T12:44:07.003Z,213.27
2022-12-13T12:47:18.993Z,208.43
2022-12-13T12:50:01.928Z,200.60
2022-12-13T12:52:40.770Z,206.15
2022-12-13T12:55:15.962Z,203.68
2022-12-13T12:57:52.876Z,222.35
2022-12-13T13:00:23.004Z,203.75
2022-12-13T13:03:01.505Z,206.90
2022-12-13T13:05:33.769Z,186.67
2022-12-13T13:08:10.663Z,196.60
2022-12-13T13:10:39.912Z,194.48
2022-12-13T13:13:14.648Z,234.48
2022-12-13T13:16:02.079Z,200.05
2022-12-13T13:18:50.416Z,173.15
2022-12-13T13:21:46.254Z,245.07
2022-12-13T13:24:21.752Z,196.77
2022-12-13T13:26:52.245Z,163.70
2022-12-13T13:29:31.226Z,205.48
2022-12-13T13:32:03.071Z,204.50
2022-12-13T13:34:33.744Z,206.13
2022-12-13T13:37:03.290Z,186.00
2022-12-13T13:39:58.602Z,220.93
2022-12-13T13:42:27.585Z,182.23
2022-12-13T13:45:20.688Z,168.93
2022-12-13T13:48:14.901Z,183.45
2022-12-13T13:51:13.432Z,127.38
2022-12-13T13:54:12.287Z,135.90
2022-12-13T13:57:05.350Z,137.38
2022-12-13T14:00:15.863Z,163.18
2022-12-13T14:03:34.211Z,159.27
2022-12-13T14:06:36.576Z,210.55
2022-12-13T14:09:28.604Z,173.23
2022-12-13T14:12:24.783Z,175.63
2022-12-13T14:15:29.616Z,164.50
2022-12-13T14:18:35.384Z,167.27
2022-12-13T14:23:50.330Z,173.73
2022-12-13T14:26:35.147Z,235.82
2022-12-13T14:29:10.879Z,188.52
2022-12-13T14:31:43.147Z,197.65
2022-12-13T14:34:21.170Z,191.35
2022-12-13T14:36:57.630Z,180.05
2022-12-13T14:39:29.361Z,182.05
2022-12-13T14:41:58.975Z,190.52
2022-12-13T14:44:30.122Z,173.02
2022-12-13T14:47:00.915Z,216.40
2022-12-13T14:49:32.335Z,189.05
2022-12-13T14:52:03.649Z,191.60
2022-12-13T14:54:39.192Z,198.95
2022-12-13T14:57:07.876Z,188.32
2022-12-13T14:59:38.784Z,199.05
2022-12-13T15:02:07.359Z,191.52
2022-12-13T15:04:37.976Z,187.93
2022-12-13T15:07:09.490Z,183.85
2022-12-13T15:09:39.832Z,195.70
2022-12-13T15:12:15.366Z,191.65
2022-12-13T15:15:00.716Z,187.07
2022-12-13T15:17:35.275Z,192.70
2022-12-13T15:20:12.208Z,240.43
2022-12-13T15:22:40.801Z,199.55
2022-12-13T15:25:19.310Z,193.73
2022-12-13T15:27:49.923Z,193.82
2022-12-13T15:30:21.537Z,188.45
2022-12-13T15:33:48.523Z,191.55
2022-12-13T15:36:18.937Z,201.00
2022-12-13T15:38:52.107Z,185.88
2022-12-13T15:41:23.533Z,203.27
2022-12-13T15:44:00.687Z,206.18
2022-12-13T15:46:33.195Z,184.95
2022-12-13T15:56:42.641Z,194.45
2022-12-13T15:59:28.467Z,166.85
2022-12-13T16:02:02.557Z,169.90
2022-12-13T16:04:32.976Z,160.88
2022-12-13T16:07:32.729Z,162.90
2022-12-13T16:10:01.512Z,186.65
2022-12-13T16:12:37.531Z,170.65
2022-12-13T16:15:28.499Z,165.10
2022-12-13T16:18:08.560Z,187.07
2022-12-13T16:20:37.088Z,218.00
2022-12-13T16:23:09.281Z,149.00
2022-12-13T16:25:38.129Z,166.15
2022-12-13T16:28:07.082Z,177.20
2022-12-13T16:31:04.185Z,174.00
2022-12-13T16:33:34.616Z,129.38
2022-12-13T16:36:03.536Z,127.95
2022-12-13T16:38:32.222Z,179.13
2022-12-13T16:41:08.318Z,146.10
2022-12-13T16:43:41.053Z,145.43
2022-12-13T16:47:17.505Z,118.75
2022-12-13T16:49:12.417Z,166.30
2022-12-13T16:51:45.012Z,133.63
2022-12-13T16:54:16.960Z,170.05
2022-12-13T16:56:45.888Z,153.18
2022-12-13T16:59:20.708Z,132.57
2022-12-13T17:01:50.355Z,143.35
2022-12-13T17:04:22.518Z,134.45
2022-12-13T17:06:54.805Z,149.32
2022-12-13T17:09:25.107Z,165.38
2022-12-13T17:11:57.378Z,170.07
2022-12-13T17:14:26.240Z,166.97
2022-12-13T17:16:55.174Z,165.13
2022-12-13T17:19:28.592Z,180.40
2022-12-13T17:21:58.039Z,170.88
2022-12-13T17:24:27.168Z,201.43
2022-12-13T17:26:56.978Z,169.40
2022-12-13T17:29:25.999Z,168.68
2022-12-13T17:32:02.206Z,182.35
2022-12-13T17:34:34.032Z,229.83
2022-12-13T17:37:08.566Z,178.95
2022-12-13T17:39:38.944Z,206.57
2022-12-13T17:42:07.711Z,210.43
2022-12-13T17:44:36.384Z,205.88
2022-12-13T17:47:05.213Z,189.88
2022-12-13T17:49:35.213Z,212.33
2022-12-13T17:52:03.775Z,186.25
2022-12-13T17:54:32.364Z,172.00
2022-12-13T17:57:01.065Z,157.98
2022-12-13T17:59:29.587Z,158.45
2022-12-13T18:01:58.274Z,169.55
2022-12-13T18:04:40.289Z,160.40
2022-12-13T18:07:10.407Z,158.32
2022-12-13T18:09:39.042Z,131.67
2022-12-13T18:12:08.484Z,165.87
2022-12-13T18:14:37.351Z,185.77
2022-12-13T18:17:06.614Z,177.63
2022-12-13T18:19:35.044Z,189.27
2022-12-13T18:22:03.599Z,172.32
2022-12-13T18:24:39.660Z,228.17
2022-12-13T18:27:08.026Z,191.73
2022-12-13T18:29:36.650Z,189.30
2022-12-13T18:32:05.149Z,208.10
2022-12-13T18:34:35.500Z,186.10
2022-12-13T18:37:04.123Z,182.07
2022-12-13T18:39:35.047Z,196.87
2022-12-13T18:42:03.581Z,190.07
2022-12-13T18:44:32.072Z,167.37
2022-12-13T18:47:04.858Z,169.83
2022-12-13T18:49:33.524Z,171.40
2022-12-13T18:52:06.282Z,170.13
2022-12-13T18:54:36.359Z,186.90
2022-12-13T18:57:05.042Z,191.50
2022-12-13T18:59:33.780Z,272.30
2022-12-13T19:02:14.059Z,191.07
2022-12-13T19:04:54.981Z,184.87
2022-12-13T19:07:24.954Z,195.53
2022-12-13T19:09:56.946Z,201.52
2022-12-13T19:12:27.982Z,227.10
2022-12-13T19:15:04.726Z,206.67
2022-12-13T19:17:35.596Z,204.17
2022-12-13T19:20:05.509Z,235.10
2022-12-13T19:22:36.339Z,196.33
2022-12-13T19:29:42.875Z,219.50
2022-12-13T19:37:12.176Z,215.50
2022-12-13T19:40:28.475Z,215.43
2022-12-13T19:43:52.763Z,212.57
2022-12-13T19:58:16.077Z,233.98
2022-12-13T20:00:45.888Z,189.03
2022-12-13T20:03:14.594Z,226.33
2022-12-13T20:05:45.944Z,217.60
2022-12-13T20:08:14.916Z,211.73
2022-12-13T20:10:46.487Z,209.40
2022-12-13T20:13:14.928Z,224.83
2022-12-13T20:15:49.647Z,207.73
2022-12-13T20:18:18.289Z,212.87
2022-12-13T20:21:10.453Z,234.20
2022-12-13T20:23:38.566Z,228.53
2022-12-13T20:26:09.270Z,223.33
2022-12-13T20:28:37.904Z,212.50
2022-12-13T20:31:10.137Z,217.30
2022-12-13T20:33:39.733Z,228.13
2022-12-13T20:36:27.189Z,218.47
2022-12-13T20:38:57.197Z,230.23
2022-12-13T20:41:27.566Z,224.40
2022-12-13T20:43:57.548Z,227.25
2022-12-13T20:46:28.428Z,224.07
2022-12-13T20:49:26.565Z,230.63
2022-12-13T21:00:13.956Z,215.37
2022-12-13T21:02:48.635Z,219.87
2022-12-13T21:09:00.303Z,202.90
2022-12-13T21:11:39.678Z,212.15
2022-12-13T21:14:30.335Z,206.68
2022-12-13T21:17:19.493Z,203.50
2022-12-13T21:20:21.092Z,204.07
2022-12-13T21:22:57.258Z,200.73
2022-12-13T21:26:22.814Z,206.83
2022-12-13T21:42:27.125Z,200.35
2022-12-13T21:45:01.854Z,196.87
2022-12-13T21:47:33.943Z,192.60
2022-12-13T21:50:53.565Z,183.82
2022-12-13T21:53:41.722Z,206.90
2022-12-13T21:56:38.272Z,193.00
2022-12-13T21:59:20.594Z,188.40
2022-12-13T22:02:09.291Z,187.52
2022-12-13T22:07:52.993Z,201.50
2022-12-13T22:10:22.172Z,201.27
2022-12-13T22:14:02.676Z,179.50
2022-12-13T22:16:36.993Z,187.50
2022-12-13T22:19:11.412Z,185.27
2022-12-13T22:21:54.287Z,194.43
2022-12-13T22:31:53.188Z,193.25
2022-12-13T22:35:01.547Z,192.15
2022-12-13T22:47:07.254Z,204.27
2022-12-13T22:53:24.961Z,202.13
2022-12-13T22:55:56.845Z,195.87
2022-12-13T22:58:27.636Z,176.90
2022-12-13T23:04:39.947Z,193.52
2022-12-13T23:07:08.833Z,187.30
2022-12-13T23:09:38.899Z,188.80
2022-12-13T23:12:25.546Z,160.32
2022-12-13T23:14:53.977Z,179.80
2022-12-13T23:17:22.590Z,177.00
2022-12-13T23:19:53.169Z,190.80
2022-12-13T23:22:23.365Z,174.38
2022-12-13T23:24:54.056Z,172.30
2022-12-13T23:27:24.569Z,189.32
2022-12-13T23:29:53.257Z,191.82
2022-12-13T23:32:21.915Z,169.30
2022-12-13T23:34:50.418Z,170.85
2022-12-13T23:37:21.860Z,168.38
2022-12-13T23:39:50.720Z,174.85
2022-12-13T23:42:20.753Z,181.85
2022-12-13T23:44:49.486Z,193.55
2022-12-13T23:47:18.215Z,186.68
2022-12-13T23:49:48.427Z,192.47
2022-12-13T23:52:17.050Z,191.23
2022-12-13T23:54:45.952Z,176.25
2022-12-13T23:57:14.702Z,166.60
2022-12-13T23:59:44.882Z,178.25
